Wolston, United Kingdom
Current Conditions -  °F | °C
As of 8:20 PM on Friday 31 Oct 2014 (Local Time) from EGBE Reporting Station
Clear Clear  
Wind Chill: 16°   Ceiling: Unl
Heat Index: 16°   Visibility: 6mi
Dew Point: 13°   Wind: 10mph
Humidity: 82%   Direction: 190°S
Pressure: 29.88"   Gusts: NA
Location:  52.38°N, 1.4°W
Report Text: EGBE 312020Z 19009KT CAVOK 16/13 Q1012
Loading
Personal Weather Stations






























Interactive Weather Map
Tropical Storm Tracking
New forecast layout! Learn more

10-Day Weather Forecast

Advertisements
Track Severe Weather on mobile